Overton, NE (68863)

4:50 PM CDT on March 31, 2015 (GMT -0500)
NEDOR | | Change Station
CLOSE
Current Station
Personal Weather Station
Location: Elm Creek, NE
Elevation: 2248 ft
Nearby Weather Stations

Elev 2248 ft 40.69 °N, 99.38 °W | Updated 36 minutes ago

Clear
Clear
81 °F
Feels Like 79 °F
N
13
Wind Variable Wind from SSE
Gusts 0.0 mph

Today
High -- | Low -- °F
--% Chance of Precip.
Yesterday
High -- | Low -- °F
Precip. -- in
7:23 AM 8:01 PM
Waxing Gibbous, 89% visible
Pressure 29.87 in
Visibility 10.0 miles
Clouds Clear
Heat Index 79 °F
Dew Point 19 °F
Humidity 10%
Rainfall in
Snow Depth Not available.
UV 4 out of 12
Pollen 8.60 out of 12
Air Quality Not available.
Flu Activity Not available.
METAR KLXN 312135Z AUTO 20016G20KT 10SM CLR 26/M03 A2987 RMK AO2 T02611032

More Conditions Fewer Conditions

Pressure 29.87 in
Visibility 10.0 miles
Clouds Clear
Heat Index 79 °F
Dew Point 19 °F
Humidity 10%
Rainfall in
Snow Depth Not available.
UV 4 out of 12
Pollen 8.60 out of 12
Air Quality Not available.
Flu Activity Not available.
METAR KLXN 312135Z AUTO 20016G20KT 10SM CLR 26/M03 A2987 RMK AO2 T02611032

More Conditions Fewer Conditions

10-Day Weather Forecast

Almanac

Astronomy

Mar. 31, 2015 Rise Set
Actual Time
Civil Twilight
Nautical Twilight
Astronomical Twilight
Moon
Length of Visible Light
Length of Day
Tomorrow will be .
, % of the Moon is Illuminated

Today's Extremes

State Highs State Lows

Community

WunderPhotos

Upload Photos

1,809,844 photos uploaded!

WunderBlogs® & News

Nearby

Air Quality

  Air Quality AQ Index Pollutant
Not available.

Snow Depth

Station Depth Elevation

Earthquake Activity

City Distance Mag. Time & Date
Minimum magnitude displayed is 2.5.

Coastal Water Temperatures

Place Temperature

Stations

Nearby Weather Stations

Station Location Temp. Windchill Dew Point Humidity Wind Precip. Elev Updated Type